createdAt,value
2023-03-17T00:01:04.086Z,52.64
2023-03-17T00:03:30.559Z,51.72
2023-03-17T00:05:57.019Z,51.26
2023-03-17T00:08:23.472Z,52.20
2023-03-17T00:10:49.922Z,51.96
2023-03-17T00:13:16.380Z,50.95
2023-03-17T00:15:42.902Z,49.65
2023-03-17T00:18:09.358Z,50.34
2023-03-17T00:20:35.834Z,50.31
2023-03-17T00:23:02.308Z,49.40
2023-03-17T00:25:28.774Z,48.86
2023-03-17T00:27:55.264Z,47.83
2023-03-17T00:30:21.717Z,48.92
2023-03-17T00:32:48.189Z,47.07
2023-03-17T00:35:14.696Z,47.90
2023-03-17T00:37:41.150Z,47.09
2023-03-17T00:40:07.633Z,47.15
2023-03-17T00:42:34.091Z,45.62
2023-03-17T00:45:00.555Z,45.49
2023-03-17T00:47:27.024Z,45.57
2023-03-17T00:49:53.464Z,44.93
2023-03-17T00:52:19.915Z,44.40
2023-03-17T00:54:46.365Z,44.25
2023-03-17T00:57:12.828Z,44.33
2023-03-17T00:59:39.286Z,43.90
2023-03-17T05:06:26.296Z,20.95
2023-03-17T05:08:52.753Z,19.43
2023-03-17T05:11:19.210Z,19.09
2023-03-17T05:13:45.651Z,19.12
2023-03-17T05:16:12.145Z,18.93
2023-03-17T05:18:38.674Z,19.07
2023-03-17T05:21:05.151Z,18.78
2023-03-17T05:23:31.618Z,18.37
2023-03-17T05:25:58.075Z,17.91
2023-03-17T05:28:24.525Z,18.31
2023-03-17T05:30:51.041Z,17.98
2023-03-17T05:33:17.538Z,18.09
2023-03-17T05:35:44.060Z,17.68
2023-03-17T05:38:10.583Z,17.48
2023-03-17T05:40:37.047Z,17.93
2023-03-17T05:43:03.515Z,17.31
2023-03-17T05:45:29.963Z,17.23
2023-03-17T05:47:56.427Z,17.12
2023-03-17T05:50:22.952Z,17.48
2023-03-17T05:52:49.414Z,17.06
2023-03-17T05:55:15.932Z,16.63
2023-03-17T05:57:42.424Z,16.45
2023-03-17T06:00:09.100Z,16.36
2023-03-17T06:02:36.243Z,16.30
2023-03-17T06:05:02.705Z,15.86
2023-03-17T06:07:41.022Z,16.19
2023-03-17T06:10:15.180Z,16.08
2023-03-17T06:12:41.642Z,16.07
2023-03-17T06:15:08.102Z,15.33
2023-03-17T06:17:34.566Z,15.17
2023-03-17T06:20:01.017Z,15.14
2023-03-17T06:22:27.480Z,14.96
2023-03-17T06:24:55.483Z,14.79
2023-03-17T06:27:22.599Z,14.56
2023-03-17T06:29:49.058Z,14.93
2023-03-17T06:32:20.673Z,14.75
2023-03-17T06:34:47.472Z,14.27
2023-03-17T06:37:13.959Z,14.48
2023-03-17T06:39:40.390Z,14.31
2023-03-17T06:42:06.850Z,13.59
2023-03-17T06:44:33.306Z,13.99
2023-03-17T06:46:59.784Z,13.61
2023-03-17T06:49:26.259Z,13.62
2023-03-17T06:51:52.712Z,13.04
2023-03-17T06:54:19.164Z,13.08
2023-03-17T06:56:45.620Z,13.00
2023-03-17T06:59:12.079Z,14.09
2023-03-17T07:01:38.585Z,13.42
2023-03-17T07:04:05.087Z,12.99
2023-03-17T07:06:31.531Z,13.03
2023-03-17T07:08:59.372Z,13.10
2023-03-17T07:11:27.413Z,12.50
2023-03-17T07:13:53.866Z,12.79
2023-03-17T07:16:20.333Z,12.29
2023-03-17T07:18:46.818Z,12.09
2023-03-17T07:21:13.286Z,11.59
2023-03-17T07:23:39.759Z,11.91
2023-03-17T07:26:06.226Z,11.07
2023-03-17T07:28:32.683Z,11.04
2023-03-17T07:30:59.162Z,10.86
2023-03-17T07:33:25.638Z,10.40
2023-03-17T07:35:52.136Z,10.63
2023-03-17T07:38:18.621Z,10.22
2023-03-17T07:40:45.173Z,10.46
2023-03-17T07:43:11.619Z,9.99
2023-03-17T07:45:38.133Z,10.28
2023-03-17T07:48:04.662Z,9.61
2023-03-17T07:50:31.159Z,9.48
2023-03-17T07:52:57.651Z,10.09
2023-03-17T07:55:24.098Z,9.66
2023-03-17T07:57:50.631Z,9.96
2023-03-17T08:00:17.233Z,9.62
2023-03-17T08:02:43.771Z,9.66
2023-03-17T08:05:10.519Z,9.61
2023-03-17T08:07:37.064Z,9.85
2023-03-17T08:10:03.573Z,9.51
2023-03-17T08:12:30.018Z,9.68
2023-03-17T08:14:56.454Z,9.85
2023-03-17T08:17:22.921Z,10.20
2023-03-17T08:19:49.396Z,10.30
2023-03-17T08:22:15.915Z,10.68
2023-03-17T08:24:42.366Z,10.44
2023-03-17T08:27:08.905Z,10.86
2023-03-17T08:29:35.375Z,10.98
2023-03-17T08:32:01.880Z,11.50
2023-03-17T08:34:28.338Z,11.38
2023-03-17T08:36:54.788Z,11.86
2023-03-17T08:39:21.236Z,12.08
2023-03-17T08:41:47.668Z,12.13
2023-03-17T08:44:14.120Z,12.48
2023-03-17T08:46:40.552Z,12.67
2023-03-17T08:49:07.004Z,12.98
2023-03-17T08:51:33.476Z,13.11
2023-03-17T08:53:59.921Z,13.84
2023-03-17T08:56:26.426Z,14.06
2023-03-17T08:58:52.927Z,13.82
2023-03-17T09:01:19.408Z,13.69
2023-03-17T09:03:45.895Z,14.11
2023-03-17T09:06:12.506Z,13.93
2023-03-17T09:08:39.004Z,14.29
2023-03-17T09:11:05.513Z,14.50
2023-03-17T09:13:31.990Z,14.50
2023-03-17T09:15:58.533Z,14.92
2023-03-17T09:18:25.011Z,14.27
2023-03-17T09:20:51.475Z,15.07
2023-03-17T09:23:17.935Z,14.62
2023-03-17T09:25:44.435Z,14.36
2023-03-17T09:28:10.899Z,14.94
2023-03-17T09:30:37.361Z,14.98
2023-03-17T09:33:03.850Z,14.64
2023-03-17T09:35:30.363Z,14.67
2023-03-17T09:37:56.995Z,15.11
2023-03-17T09:40:23.478Z,15.62
2023-03-17T09:42:49.965Z,15.32
2023-03-17T09:45:16.434Z,15.35
2023-03-17T09:47:43.076Z,15.35
2023-03-17T09:50:09.577Z,15.19
2023-03-17T09:52:36.041Z,15.55
2023-03-17T09:55:02.472Z,15.34
2023-03-17T09:57:28.967Z,15.43
2023-03-17T09:59:55.423Z,15.76
2023-03-17T10:02:21.877Z,15.90
2023-03-17T10:04:48.383Z,15.70
2023-03-17T10:07:14.883Z,16.12
2023-03-17T10:09:41.463Z,16.39
2023-03-17T10:12:07.932Z,16.73
2023-03-17T10:14:34.387Z,16.87
2023-03-17T10:17:00.852Z,16.88
2023-03-17T10:19:27.320Z,16.72
2023-03-17T10:21:53.788Z,17.10
2023-03-17T10:24:20.228Z,17.61
2023-03-17T10:26:46.703Z,18.64
2023-03-17T10:29:13.169Z,19.53
2023-03-17T10:31:39.769Z,19.15
2023-03-17T10:34:06.279Z,19.98
2023-03-17T10:36:32.751Z,19.74
2023-03-17T10:38:59.255Z,21.16
2023-03-17T10:41:25.715Z,20.90
2023-03-17T10:43:52.171Z,22.48
2023-03-17T10:46:18.654Z,22.25
2023-03-17T10:48:45.187Z,22.72
2023-03-17T10:51:11.684Z,23.54
2023-03-17T10:53:38.144Z,23.37
2023-03-17T10:56:04.600Z,23.09
2023-03-17T10:58:31.070Z,23.56
2023-03-17T11:00:57.637Z,23.07
2023-03-17T11:03:24.165Z,22.56
2023-03-17T11:05:50.627Z,23.08
2023-03-17T11:08:17.079Z,22.76
2023-03-17T11:10:43.550Z,22.81
2023-03-17T11:13:09.992Z,22.55
2023-03-17T11:15:36.451Z,22.52
2023-03-17T11:18:02.907Z,22.09
2023-03-17T11:20:29.612Z,20.92
2023-03-17T11:22:56.204Z,21.08
2023-03-17T11:25:22.654Z,19.89
2023-03-17T11:27:49.116Z,19.30
2023-03-17T11:30:15.606Z,24.85
2023-03-17T11:32:42.165Z,44.71
2023-03-17T11:35:08.702Z,45.62
2023-03-17T11:37:35.162Z,36.58
2023-03-17T11:40:01.607Z,33.45
2023-03-17T11:42:28.098Z,32.20
2023-03-17T11:44:54.559Z,30.17
2023-03-17T11:47:21.002Z,30.14
2023-03-17T11:49:47.466Z,29.18
2023-03-17T11:52:13.945Z,28.34
2023-03-17T11:54:40.390Z,28.01
2023-03-17T11:57:06.844Z,27.32
2023-03-17T11:59:33.311Z,27.68
2023-03-17T12:01:59.761Z,27.41
2023-03-17T12:04:26.258Z,27.18
2023-03-17T12:06:52.772Z,27.69
2023-03-17T12:09:19.211Z,27.87
2023-03-17T12:11:45.672Z,27.30
2023-03-17T12:14:12.118Z,28.33
2023-03-17T12:16:38.575Z,29.84
2023-03-17T12:19:05.114Z,30.85
2023-03-17T12:21:31.558Z,30.42
2023-03-17T12:23:58.020Z,30.65
2023-03-17T12:26:24.478Z,31.84
2023-03-17T12:28:50.950Z,32.90
2023-03-17T12:31:17.428Z,34.68
2023-03-17T12:33:43.924Z,35.25
2023-03-17T12:36:10.426Z,35.01
2023-03-17T12:38:36.914Z,36.40
2023-03-17T12:41:03.375Z,36.70
2023-03-17T12:43:29.873Z,37.36
2023-03-17T12:45:56.352Z,37.28
2023-03-17T12:48:22.823Z,39.07
2023-03-17T12:50:49.292Z,37.63
2023-03-17T12:53:15.749Z,37.40
2023-03-17T12:55:42.299Z,37.36
2023-03-17T12:58:08.778Z,37.32
2023-03-17T13:00:35.243Z,37.12
2023-03-17T13:03:01.733Z,36.86
2023-03-17T13:05:28.318Z,37.37
2023-03-17T13:07:54.815Z,35.14
2023-03-17T13:10:21.291Z,35.34
2023-03-17T13:12:47.754Z,34.57
2023-03-17T13:15:14.199Z,33.32
2023-03-17T13:17:40.678Z,33.81
2023-03-17T13:20:07.149Z,33.10
2023-03-17T13:22:33.630Z,32.68
2023-03-17T13:25:00.115Z,32.23
2023-03-17T13:27:26.565Z,31.40
2023-03-17T13:29:53.016Z,31.38
2023-03-17T13:32:19.476Z,31.34
2023-03-17T13:34:45.948Z,30.47
2023-03-17T13:37:12.416Z,30.93
2023-03-17T13:39:38.883Z,29.88
2023-03-17T13:42:15.679Z,29.72
2023-03-17T13:44:43.840Z,28.99
2023-03-17T13:47:10.307Z,28.65
2023-03-17T13:49:36.940Z,29.01
2023-03-17T13:52:03.451Z,28.21
2023-03-17T13:54:29.931Z,28.19
2023-03-17T13:56:56.405Z,27.80
2023-03-17T13:59:22.916Z,27.74
2023-03-17T14:01:49.384Z,27.74
2023-03-17T14:04:16.018Z,27.85
2023-03-17T14:06:42.497Z,27.22
2023-03-17T14:09:08.943Z,26.79
2023-03-17T14:11:35.395Z,27.26
2023-03-17T14:14:01.857Z,26.00
2023-03-17T14:16:28.359Z,26.40
2023-03-17T14:18:54.892Z,26.37
2023-03-17T14:21:21.370Z,26.69
2023-03-17T14:23:47.821Z,26.39
2023-03-17T14:26:14.275Z,25.83
2023-03-17T14:28:40.742Z,25.53
2023-03-17T14:31:07.214Z,24.60
2023-03-17T14:33:33.678Z,24.58
2023-03-17T14:36:00.189Z,23.83
2023-03-17T14:38:26.663Z,23.79
2023-03-17T14:40:53.140Z,23.41
2023-03-17T14:43:19.637Z,23.52
2023-03-17T14:45:46.135Z,23.42
2023-03-17T14:48:12.619Z,23.07
2023-03-17T14:50:39.077Z,22.57
2023-03-17T14:53:05.596Z,22.62
2023-03-17T14:55:32.350Z,22.77
2023-03-17T14:57:59.139Z,23.19
2023-03-17T15:00:25.618Z,23.31
2023-03-17T15:02:52.059Z,23.24
2023-03-17T15:05:18.516Z,23.26
2023-03-17T15:07:44.978Z,23.10
2023-03-17T15:10:11.450Z,22.58
2023-03-17T15:12:37.902Z,22.09
2023-03-17T15:15:04.381Z,21.95
2023-03-17T15:17:30.845Z,21.92
2023-03-17T15:19:57.302Z,21.48
2023-03-17T15:22:23.748Z,20.73
2023-03-17T15:24:50.201Z,21.58
2023-03-17T15:27:16.657Z,21.28
2023-03-17T15:29:43.130Z,20.71
2023-03-17T15:32:09.603Z,20.40
2023-03-17T15:34:36.094Z,20.02
2023-03-17T15:37:02.600Z,19.19
2023-03-17T15:39:29.041Z,19.51
2023-03-17T15:41:55.502Z,19.27
2023-03-17T15:44:21.963Z,19.28
2023-03-17T15:46:48.422Z,19.41
2023-03-17T15:49:14.910Z,19.32
2023-03-17T15:51:41.385Z,18.57
2023-03-17T15:54:08.960Z,18.62
2023-03-17T15:56:35.441Z,18.30
2023-03-17T15:59:01.909Z,18.22
2023-03-17T16:01:28.567Z,17.85
2023-03-17T16:03:55.112Z,17.71
2023-03-17T16:06:21.590Z,17.36
2023-03-17T16:08:48.048Z,17.28
2023-03-17T16:11:14.514Z,17.10
2023-03-17T16:13:40.975Z,17.51
2023-03-17T16:16:07.449Z,17.23
2023-03-17T16:18:33.936Z,17.13
2023-03-17T16:21:00.439Z,16.79
2023-03-17T16:23:27.033Z,17.11
2023-03-17T16:25:55.447Z,17.47
2023-03-17T16:28:25.761Z,17.68
2023-03-17T16:30:52.279Z,16.87
2023-03-17T16:33:18.788Z,17.50
2023-03-17T16:35:45.298Z,17.74
2023-03-17T16:38:11.782Z,16.94
2023-03-17T16:40:38.248Z,16.78
2023-03-17T16:43:10.342Z,17.68
2023-03-17T16:45:42.236Z,17.33
2023-03-17T16:48:08.705Z,17.55
2023-03-17T16:50:35.155Z,18.14
2023-03-17T16:53:01.637Z,17.92
2023-03-17T16:55:28.079Z,17.47
2023-03-17T16:57:54.551Z,18.21
2023-03-17T17:00:21.005Z,18.00
2023-03-17T17:02:49.596Z,18.30
2023-03-17T17:05:16.245Z,18.51
2023-03-17T17:07:42.698Z,18.51
2023-03-17T17:10:09.166Z,18.72
2023-03-17T17:12:35.636Z,19.03
2023-03-17T17:15:02.110Z,18.34
2023-03-17T17:17:28.558Z,18.75
2023-03-17T17:19:55.013Z,19.36
2023-03-17T17:22:21.463Z,18.72
2023-03-17T17:24:47.942Z,18.69
2023-03-17T17:27:14.398Z,18.41
2023-03-17T17:29:40.853Z,18.81
2023-03-17T17:32:07.291Z,18.11
2023-03-17T17:34:33.754Z,18.39
2023-03-17T17:37:00.221Z,18.31
2023-03-17T17:39:26.694Z,17.78
2023-03-17T17:41:53.158Z,18.15
2023-03-17T17:44:19.629Z,17.98
2023-03-17T17:46:46.163Z,18.90
2023-03-17T17:49:12.664Z,19.33
2023-03-17T17:51:39.125Z,19.52
2023-03-17T17:54:05.589Z,19.58
2023-03-17T17:56:32.032Z,19.84
2023-03-17T17:58:58.518Z,20.22
2023-03-17T18:01:24.988Z,20.36
2023-03-17T18:03:51.450Z,20.24
2023-03-17T18:06:17.941Z,19.34
2023-03-17T18:08:44.417Z,19.41
2023-03-17T18:11:10.862Z,20.26
2023-03-17T18:13:37.345Z,19.89
2023-03-17T18:16:03.871Z,19.78
2023-03-17T18:18:30.415Z,19.66
2023-03-17T18:20:56.887Z,19.83
2023-03-17T18:23:23.357Z,19.91
2023-03-17T18:25:49.844Z,19.72
2023-03-17T18:28:16.308Z,19.60
2023-03-17T18:30:42.754Z,19.57
2023-03-17T18:33:09.325Z,20.43
2023-03-17T18:35:35.880Z,20.23
2023-03-17T18:38:02.340Z,20.17
2023-03-17T18:40:28.811Z,21.42
2023-03-17T18:42:55.255Z,21.80
2023-03-17T18:45:21.718Z,21.67
2023-03-17T18:47:48.198Z,32.84
2023-03-17T18:50:14.671Z,26.62
2023-03-17T18:52:41.166Z,28.71
2023-03-17T18:55:07.655Z,33.02
2023-03-17T18:57:34.185Z,34.76
2023-03-17T19:00:00.649Z,44.79
2023-03-17T19:02:27.128Z,50.01
2023-03-17T19:04:53.584Z,56.20
2023-03-17T19:07:20.028Z,63.63
2023-03-17T19:09:46.491Z,74.26
2023-03-17T19:12:12.947Z,80.83
2023-03-17T19:14:39.454Z,85.62
2023-03-17T19:17:05.928Z,90.40
2023-03-17T19:19:32.458Z,95.46
2023-03-17T19:21:58.916Z,98.37
2023-03-17T19:24:25.368Z,104.32
2023-03-17T19:26:51.855Z,105.93
2023-03-17T19:29:18.338Z,107.28
2023-03-17T19:31:45.739Z,112.49
2023-03-17T19:34:13.828Z,118.70
2023-03-17T19:36:40.295Z,124.48
2023-03-17T19:39:06.801Z,130.35
2023-03-17T19:41:33.293Z,134.97
2023-03-17T19:43:59.751Z,143.93
2023-03-17T19:46:26.243Z,151.24
2023-03-17T19:48:52.703Z,160.50
2023-03-17T19:51:19.173Z,165.43
2023-03-17T19:53:45.671Z,171.26
2023-03-17T19:56:12.129Z,173.97
2023-03-17T19:58:38.588Z,179.20
2023-03-17T20:01:05.117Z,179.79
2023-03-17T20:03:31.669Z,184.45
2023-03-17T20:05:58.154Z,186.58
2023-03-17T20:08:24.623Z,191.03
2023-03-17T20:10:51.084Z,193.84
2023-03-17T20:13:17.570Z,196.83
2023-03-17T20:15:44.086Z,195.55
2023-03-17T20:18:10.569Z,198.16
2023-03-17T20:20:37.036Z,198.37
2023-03-17T20:23:03.498Z,199.25
2023-03-17T20:25:29.954Z,203.36
2023-03-17T20:27:56.412Z,202.92
2023-03-17T20:30:22.932Z,206.96
2023-03-17T20:32:49.474Z,208.88
2023-03-17T20:35:15.961Z,208.44
2023-03-17T20:37:42.482Z,207.89
2023-03-17T20:40:08.966Z,207.82
2023-03-17T20:42:35.447Z,207.02
2023-03-17T20:45:01.919Z,209.76
2023-03-17T20:47:28.409Z,209.10
2023-03-17T20:49:54.881Z,208.95
2023-03-17T20:52:21.373Z,208.01
2023-03-17T20:54:47.827Z,207.07
2023-03-17T20:57:14.295Z,207.62
2023-03-17T20:59:40.756Z,204.88
2023-03-17T21:02:07.312Z,205.27
2023-03-17T21:04:33.818Z,204.59
2023-03-17T21:07:00.313Z,201.59
2023-03-17T21:09:26.778Z,200.77
2023-03-17T21:11:53.247Z,200.55
2023-03-17T21:14:19.710Z,198.03
2023-03-17T21:16:46.190Z,196.17
2023-03-17T21:19:12.675Z,197.42
2023-03-17T21:21:39.144Z,194.19
2023-03-17T21:24:05.809Z,193.52
2023-03-17T21:26:32.296Z,194.33
2023-03-17T21:28:58.774Z,192.23
2023-03-17T21:31:25.266Z,191.23
2023-03-17T21:33:51.762Z,188.82
2023-03-17T21:36:18.227Z,185.86
2023-03-17T21:38:44.703Z,187.63
2023-03-17T21:41:11.180Z,187.26
2023-03-17T21:43:37.791Z,184.04
2023-03-17T21:46:04.326Z,182.54
2023-03-17T21:48:30.855Z,182.58
2023-03-17T21:50:57.314Z,180.37
2023-03-17T21:53:23.772Z,179.99
2023-03-17T21:55:50.236Z,176.43
2023-03-17T21:58:16.713Z,175.08
2023-03-17T22:00:45.941Z,172.55
2023-03-17T22:03:12.785Z,175.29
2023-03-17T22:05:39.260Z,171.92
2023-03-17T22:08:05.738Z,170.56
2023-03-17T22:10:32.400Z,169.82
2023-03-17T22:12:59.048Z,166.58
2023-03-17T22:15:25.543Z,167.13
2023-03-17T22:17:52.017Z,166.14
2023-03-17T22:20:18.486Z,166.63
2023-03-17T22:22:44.969Z,164.31
2023-03-17T22:25:11.445Z,162.73
2023-03-17T22:27:37.911Z,160.46
2023-03-17T22:30:04.375Z,161.67
2023-03-17T22:32:30.917Z,159.88
2023-03-17T22:34:57.399Z,156.70
2023-03-17T22:37:23.860Z,157.99
2023-03-17T22:39:50.325Z,157.13
2023-03-17T22:42:16.798Z,152.78
2023-03-17T22:44:43.267Z,154.83
2023-03-17T22:47:09.743Z,152.55
2023-03-17T22:49:36.209Z,151.99
2023-03-17T22:52:02.672Z,150.66
2023-03-17T22:54:29.145Z,149.11
2023-03-17T22:56:55.646Z,147.75
2023-03-17T22:59:22.139Z,146.44
2023-03-17T23:01:48.603Z,144.69
2023-03-17T23:04:15.115Z,144.24
2023-03-17T23:06:41.654Z,142.28
2023-03-17T23:09:08.149Z,141.78
2023-03-17T23:11:34.626Z,141.94
2023-03-17T23:14:01.082Z,140.16
2023-03-17T23:16:27.598Z,138.58
2023-03-17T23:18:54.085Z,137.77
2023-03-17T23:21:20.549Z,137.33
2023-03-17T23:23:47.018Z,136.76
2023-03-17T23:26:13.482Z,134.69
2023-03-17T23:28:39.946Z,132.81
2023-03-17T23:31:06.498Z,130.13
2023-03-17T23:33:33.005Z,128.84
2023-03-17T23:35:59.481Z,127.66
2023-03-17T23:38:25.993Z,125.18
2023-03-17T23:40:52.439Z,122.32
2023-03-17T23:43:18.932Z,120.69
2023-03-17T23:45:45.496Z,118.61
2023-03-17T23:48:12.041Z,117.21
2023-03-17T23:50:38.511Z,113.63
2023-03-17T23:53:04.970Z,115.11
2023-03-17T23:55:31.415Z,114.50
2023-03-17T23:57:57.872Z,114.87
